Station SCXA2 - Scull Island, AK Image indicating link to RSS feed of recent meteorological observations for station SCXA2


Conditions at SCXA2 as of
(9:42 pm AKDT on 05/29/2024)
0542 GMT on 05/30/2024:
     

Click on the graph icon in the table below to see a time series plot of the last five days of that observation.

5-day plot - Wind Direction Wind Direction (WDIR): SE ( 140 deg true )
5-day plot - Wind Speed Wind Speed (WSPD): 7 kts
5-day plot - Wind Gust Wind Gust (GST): 8 kts
5-day plot - Air Temperature Air Temperature (ATMP): 46.8 °F
5-day plot - Wind Chill Wind Chill (CHILL): 42.8 °F
5-day plot - Wind Speed at 10 Meters Wind Speed at 10 meters (WSPD10M): 8 kts
5-day plot - Wind Speed at 20 Meters Wind Speed at 20 meters (WSPD20M): 10 kts
5-day plot -  Wind Speed, Wind Gust and Atmospheric Pressure Combined plot of Wind Speed, Gust, and Air Pressure
Previous observations
TIME
(AKDT)
5-day plot - Wind Direction
WDIR
 
5-day plot - Wind Speed
WSPD
kts
5-day plot - Wind Gust
GST
kts
5-day plot - Wave Height
WVHT
ft
5-day plot - Dominant Wave Period
DPD
sec
5-day plot - Average Wave Period
APD
sec
5-day plot - Mean Wave Direction
MWD
 
5-day plot - Atmospheric Pressure
PRES
in
5-day plot - Pressure Tendency
PTDY
in
5-day plot - Air Temperature
ATMP
°F
5-day plot - Water Temperature
WTMP
°F
5-day plot - Dew Point
DEWP
°F
5-day plot - Salinity
SAL
psu
5-day plot - Visibility
VIS
nmi
5-day plot - Tide (above MLLW)
TIDE
ft
2024-05-29 09:32 pm SE 8 10------ 47.1-----
2024-05-29 09:22 pm SE 9 12------ 47.1-----
2024-05-29 09:12 pm SE 11 13------ 47.5-----
2024-05-29 09:02 pmESE 11 14------ 47.7-----
2024-05-29 08:52 pmESE 9 13------ 47.7-----
2024-05-29 08:42 pm SE 7 10------ 47.7-----
2024-05-29 08:32 pmESE 10 12------ 47.5-----
2024-05-29 08:22 pmESE 11 13------ 47.5-----
2024-05-29 08:12 pmESE 13 15------ 47.5-----
2024-05-29 08:03 pmESE 13 15------ 47.7-----
2024-05-29 07:53 pmESE 12 15------ 47.8-----
2024-05-29 07:43 pm E 9 12------ 48.4-----
2024-05-29 07:32 pm E 3 6------ 48.4-----
2024-05-29 07:22 pmSSW 3 6------ 48.2-----
2024-05-29 07:03 pmESE 11 12------ 48.6-----
2024-05-29 06:53 pmESE 12 14------ 48.6-----
2024-05-29 06:43 pm E 11 14------ 48.0-----
2024-05-29 06:33 pm E 8 10------ 47.8-----
2024-05-29 06:23 pm NE 3 6------ 47.8-----
2024-05-29 06:13 pmWNW 5 7------ 47.3-----
2024-05-29 06:03 pm W 7 8------ 47.7-----
2024-05-29 05:53 pmWSW 5 8------ 47.8-----
2024-05-29 05:43 pmSSW 2 3------ 48.2-----
2024-05-29 05:33 pm E 4 7------ 48.0-----
2024-05-29 05:23 pm E 7 8------ 48.4-----
2024-05-29 05:13 pm E 4 6------ 48.4-----
2024-05-29 05:03 pm SE 4 5------ 48.6-----
2024-05-29 04:53 pm S 5 7------ 48.4-----
2024-05-29 04:43 pmSSW 5 7------ 48.7-----
2024-05-29 04:33 pmSSW 6 8------ 48.9-----
2024-05-29 04:23 pm SW 5 8------ 49.8-----
2024-05-29 04:13 pmWNW 5 7------ 50.4-----
2024-05-29 03:53 pmNNE 2 3------ 50.0-----
2024-05-29 03:44 pm W 5 7------ 49.6-----
2024-05-29 03:34 pmWSW 8 10------ 50.0-----
2024-05-29 03:23 pmWSW 8 9------ 49.8-----
2024-05-29 03:13 pm W 8 13------ 49.3-----
2024-05-29 03:04 pm W 5 6------ 49.1-----
2024-05-29 02:55 pm W 6 10------ 48.9-----
2024-05-29 02:43 pm SW 8 11------ 48.9-----
2024-05-29 02:36 pmWSW 9 14------ 49.6-----
2024-05-29 02:24 pm SW 12 16------ 49.6-----
2024-05-29 02:15 pmSSE 8 17------ 50.9-----
2024-05-29 02:02 pmESE 8 21------ 50.9-----
2024-05-29 01:52 pmESE 6 14------ 51.1-----
2024-05-29 01:42 pm E 8 21------ 50.7-----
2024-05-29 01:32 pmESE 4 8------ 50.7-----
2024-05-29 01:22 pmSSE 6 18------ 50.2-----
2024-05-29 01:12 pmESE 16 21------ 49.8-----
2024-05-29 01:03 pm E 19 22------ 50.0-----
2024-05-29 12:52 pm E 19 21------ 49.6-----
2024-05-29 12:42 pm E 19 22------ 49.6-----
2024-05-29 12:32 pm E 19 23------ 49.3-----
2024-05-29 12:22 pm E 21 24------ 49.1-----
2024-05-29 12:12 pm E 21 25------ 48.7-----
2024-05-29 12:03 pm E 23 27------ 48.6-----
2024-05-29 11:52 am E 24 28------ 48.2-----
2024-05-29 11:42 am E 24 28------ 48.4-----
2024-05-29 11:32 am E 23 29------ 48.2-----
2024-05-29 11:22 am E 24 28------ 48.2-----
2024-05-29 11:12 am E 23 26------ 48.2-----
2024-05-29 11:02 am E 23 27------ 48.0-----
2024-05-29 10:52 am E 23 27------ 48.0-----
2024-05-29 10:42 am E 21 25------ 47.8-----
2024-05-29 10:32 am E 22 25------ 47.8-----
2024-05-29 10:23 am E 23 27------ 47.8-----
2024-05-29 10:12 am E 23 26------ 47.8-----
2024-05-29 10:02 am E 21 25------ 47.8-----
2024-05-29 09:52 am E 20 24------ 47.8-----
2024-05-29 09:42 am E 19 23------ 47.8-----
2024-05-29 09:33 am E 21 24------ 47.7-----
2024-05-29 09:22 am E 20 24------ 47.7-----
2024-05-29 09:12 am E 18 21------ 47.7-----
2024-05-29 09:02 am E 19 23------ 47.5-----
2024-05-29 08:53 am E 19 22------ 47.1-----
2024-05-29 08:43 am E 19 21------ 47.1-----
2024-05-29 08:32 am E 18 23------ 46.9-----
2024-05-29 08:23 am E 19 23------ 46.8-----
2024-05-29 08:13 am E 18 22------ 46.9-----
2024-05-29 08:02 amESE 17 20------ 46.8-----
2024-05-29 07:52 amESE 18 21------ 46.6-----
2024-05-29 07:42 am E 17 20------ 46.8-----
2024-05-29 07:32 amESE 17 19------ 46.6-----
2024-05-29 07:22 am E 16 19------ 46.6-----
2024-05-29 07:12 amESE 12 17------ 46.8-----
2024-05-29 07:02 amESE 4 6------ 47.3-----
2024-05-29 06:52 amENE 2 5------ 47.5-----
2024-05-29 06:42 am- 0 2------ 47.7-----
2024-05-29 06:32 am- 0 2------ 47.5-----
2024-05-29 06:22 amNNW 1 4------ 47.3-----
2024-05-29 06:12 amNNW 2 4------ 47.1-----
2024-05-29 06:03 amWNW 5 7------ 46.9-----
2024-05-29 05:52 am W 4 7------ 47.1-----
2024-05-29 05:42 amWNW 2 4------ 46.9-----
2024-05-29 05:32 am- 0 3------ 46.9-----
2024-05-29 05:22 amSSW 2 4------ 46.4-----
2024-05-29 05:13 am SW 5 6------ 46.6-----
2024-05-29 05:02 am SW 3 5------ 47.1-----
2024-05-29 04:52 am- 0 2------ 47.7-----
2024-05-29 04:43 am- 0 2------ 47.3-----
2024-05-29 04:32 am- 0 2------ 47.1-----
2024-05-29 04:22 amSSW 1 3------ 46.9-----
2024-05-29 04:12 amWSW 4 5------ 47.5-----
2024-05-29 04:02 am W 3 5------ 47.8-----
2024-05-29 03:52 amSSW 2 4------ 47.8-----
2024-05-29 03:42 am S 3 8------ 47.8-----
2024-05-29 03:32 am SW 4 6------ 47.7-----
2024-05-29 03:22 amWSW 3 5------ 47.1-----
2024-05-29 03:12 amWSW 2 3------ 46.6-----
2024-05-29 03:02 amWSW 4 5------ 46.6-----
2024-05-29 02:52 am SW 4 5------ 46.6-----
2024-05-29 02:42 am SW 4 6------ 46.9-----
2024-05-29 02:32 am SW 4 7------ 47.3-----
2024-05-29 02:22 amSSE 5 7------ 47.8-----
2024-05-29 02:12 amESE 2 5------ 48.0-----
2024-05-29 02:02 am S 2 3------ 47.8-----
2024-05-29 01:53 amSSE 4 7------ 48.0-----
2024-05-29 01:42 am S 3 6------ 47.8-----
2024-05-29 01:32 am W 3 5------ 47.8-----
2024-05-29 01:23 amSSW 4 6------ 47.7-----
2024-05-29 01:12 am SW 5 8------ 48.0-----
2024-05-29 01:02 amSSW 3 5------ 48.4-----
2024-05-29 12:53 amWSW 3 7------ 48.0-----
2024-05-29 12:42 am S 3 6------ 48.4-----
2024-05-29 12:32 amSSE 4 7------ 48.6-----
2024-05-29 12:22 am SE 6 8------ 48.9-----
2024-05-29 12:13 am SE 6 8------ 49.1-----
2024-05-29 12:02 amSSE 2 5------ 49.1-----
2024-05-28 11:52 pm SW 3 4------ 48.9-----
2024-05-28 11:42 pm W 3 5------ 48.7-----
2024-05-28 11:32 pm SW 3 5------ 48.4-----
2024-05-28 11:22 pm S 2 3------ 49.1-----
2024-05-28 11:12 pmSSW 3 7------ 49.3-----
2024-05-28 11:02 pmSSW 4 7------ 49.3-----
2024-05-28 10:52 pm SW 6 8------ 48.9-----
2024-05-28 10:42 pm S 5 8------ 49.8-----
2024-05-28 10:32 pm SE 6 10------ 50.5-----
2024-05-28 10:22 pm E 3 11------ 50.5-----
2024-05-28 10:12 pm SW 3 5------ 50.7-----
2024-05-28 10:02 pmWSW 4 6------ 50.5-----
2024-05-28 09:52 pmWSW 6 8------ 50.5-----